Centerville, Florida
Current Conditions -  °F | °C
As of 3:53 AM on Wednesday 26 Nov 2014 (Local Time) from KTLH Reporting Station
Moderate Rain Moderate Rain  
Wind Chill: 47°   Ceiling: 700
Heat Index: 49°   Visibility: 5mi
Dew Point: 45°   Wind: 6mph
Humidity: 86%   Direction: 360°N
Pressure: 30.02"   Gusts: NA
Location:  30.5947°N, 84.0417°W
Report Text: KTLH 260753Z AUTO 36005KT 5SM RA BR BKN007 BKN060 OVC080 09/07 A3002 RMK AO2 RAE42B47 SLP166 P0005 T00940072 $
Loading
Personal Weather Stations






























Interactive Weather Map New forecast layout! Learn more

10-Day Weather Forecast

Advertisements
Track Severe Weather on mobile